createdAt,value
2022-08-14T00:02:02.377Z,25.71
2022-08-14T00:04:35.680Z,25.71
2022-08-14T00:07:11.187Z,25.71
2022-08-14T00:09:55.573Z,25.71
2022-08-14T00:12:34.072Z,25.69
2022-08-14T00:15:09.085Z,25.70
2022-08-14T00:17:38.147Z,25.71
2022-08-14T00:20:24.039Z,25.70
2022-08-14T00:23:00.347Z,25.70
2022-08-14T00:25:42.401Z,25.71
2022-08-14T00:28:15.188Z,25.71
2022-08-14T00:30:46.887Z,25.72
2022-08-14T00:33:16.790Z,25.74
2022-08-14T00:36:36.817Z,25.74
2022-08-14T00:38:35.418Z,25.74
2022-08-14T00:41:06.133Z,25.74
2022-08-14T00:43:36.447Z,25.74
2022-08-14T00:46:07.921Z,25.74
2022-08-14T00:48:38.475Z,25.74
2022-08-14T00:51:08.931Z,25.75
2022-08-14T00:53:38.578Z,25.76
2022-08-14T00:56:08.577Z,25.75
2022-08-14T00:58:45.070Z,25.75
2022-08-14T01:01:19.191Z,25.74
2022-08-14T01:03:49.673Z,25.74
2022-08-14T01:06:21.387Z,25.74
2022-08-14T01:08:51.834Z,25.75
2022-08-14T01:11:31.599Z,25.75
2022-08-14T01:14:25.911Z,25.75
2022-08-14T01:16:55.674Z,25.75
2022-08-14T01:19:43.353Z,25.74
2022-08-14T01:22:18.870Z,25.74
2022-08-14T01:24:47.581Z,25.74
2022-08-14T01:27:18.785Z,25.75
2022-08-14T01:30:03.107Z,25.74
2022-08-14T01:32:35.297Z,25.75
2022-08-14T01:35:19.428Z,25.74
2022-08-14T01:37:58.857Z,25.76
2022-08-14T01:40:37.084Z,25.76
2022-08-14T01:43:18.615Z,25.73
2022-08-14T01:45:57.646Z,25.74
2022-08-14T01:48:37.601Z,25.75
2022-08-14T01:51:18.732Z,25.73
2022-08-14T01:53:55.290Z,25.74
2022-08-14T01:56:37.285Z,25.73
2022-08-14T01:59:09.711Z,25.74
2022-08-14T02:01:41.963Z,25.74
2022-08-14T02:04:55.744Z,25.75
2022-08-14T02:07:15.755Z,25.74
2022-08-14T02:09:45.796Z,25.74
2022-08-14T02:12:26.621Z,25.73
2022-08-14T02:15:00.469Z,25.74
2022-08-14T02:17:30.717Z,25.74
2022-08-14T02:19:59.460Z,25.73
2022-08-14T02:22:29.002Z,25.73
2022-08-14T02:25:05.040Z,25.73
2022-08-14T02:28:23.174Z,25.73
2022-08-14T02:30:22.342Z,25.73
2022-08-14T02:32:51.098Z,25.74
2022-08-14T02:35:21.844Z,25.73
2022-08-14T02:37:50.911Z,25.74
2022-08-14T02:40:32.485Z,25.74
2022-08-14T02:43:03.325Z,25.73
2022-08-14T02:45:38.333Z,25.73
2022-08-14T02:49:04.146Z,25.73
2022-08-14T02:51:02.772Z,25.74
2022-08-14T02:53:33.268Z,25.73
2022-08-14T02:56:17.353Z,25.74
2022-08-14T02:58:55.650Z,25.73
2022-08-14T03:01:26.232Z,25.73
2022-08-14T03:03:59.882Z,25.71
2022-08-14T03:06:48.897Z,25.73
2022-08-14T03:09:17.895Z,25.73
2022-08-14T03:11:47.873Z,25.72
2022-08-14T03:14:18.036Z,25.73
2022-08-14T03:16:50.912Z,25.73
2022-08-14T03:19:19.856Z,25.73
2022-08-14T03:21:52.815Z,25.74
2022-08-14T03:24:23.241Z,25.74
2022-08-14T03:26:57.688Z,25.74
2022-08-14T03:29:27.889Z,25.75
2022-08-14T03:31:59.473Z,25.73
2022-08-14T03:34:48.569Z,25.74
2022-08-14T03:37:51.369Z,25.73
2022-08-14T03:40:11.394Z,25.73
2022-08-14T03:42:48.045Z,25.73
2022-08-14T03:45:20.348Z,25.73
2022-08-14T03:48:01.802Z,25.74
2022-08-14T03:50:32.620Z,25.73
2022-08-14T03:53:02.357Z,25.72
2022-08-14T03:55:31.178Z,25.71
2022-08-14T03:58:01.115Z,25.72
2022-08-14T04:00:42.701Z,25.73
2022-08-14T04:03:16.681Z,25.73
2022-08-14T04:05:49.157Z,25.73
2022-08-14T04:08:23.033Z,25.73
2022-08-14T04:10:59.339Z,25.73
2022-08-14T04:13:33.954Z,25.71
2022-08-14T04:16:06.925Z,25.72
2022-08-14T04:18:42.274Z,25.71
2022-08-14T04:21:11.469Z,25.71
2022-08-14T04:23:40.098Z,25.72
2022-08-14T04:26:15.102Z,25.72
2022-08-14T04:29:07.932Z,25.72
2022-08-14T04:32:58.073Z,25.72
2022-08-14T04:34:35.270Z,25.71
2022-08-14T04:37:25.544Z,25.71
2022-08-14T04:40:12.349Z,25.71
2022-08-14T04:42:57.910Z,25.71
2022-08-14T04:45:36.601Z,25.72
2022-08-14T04:48:36.748Z,25.72
2022-08-14T04:51:03.389Z,25.69
2022-08-14T04:53:34.823Z,25.70
2022-08-14T04:56:10.370Z,25.71
2022-08-14T04:58:40.213Z,25.71
2022-08-14T05:01:19.545Z,25.71
2022-08-14T05:03:50.621Z,25.71
2022-08-14T05:06:38.352Z,25.70
2022-08-14T05:09:14.033Z,25.71
2022-08-14T05:11:44.312Z,25.70
2022-08-14T05:14:34.201Z,25.70
2022-08-14T05:17:03.564Z,25.71
2022-08-14T05:19:32.670Z,25.71
2022-08-14T05:22:16.764Z,25.70
2022-08-14T05:24:49.649Z,25.70
2022-08-14T05:27:22.730Z,25.70
2022-08-14T05:29:55.341Z,25.71
2022-08-14T05:32:27.644Z,25.70
2022-08-14T05:34:59.192Z,25.70
2022-08-14T05:37:29.993Z,25.70
2022-08-14T05:40:00.926Z,25.70
2022-08-14T05:42:32.280Z,25.71
2022-08-14T05:45:05.522Z,25.71
2022-08-14T05:47:42.989Z,25.70
2022-08-14T05:50:18.814Z,25.70
2022-08-14T05:52:50.782Z,25.69
2022-08-14T05:55:22.193Z,25.70
2022-08-14T05:57:57.889Z,25.70
2022-08-14T06:00:31.679Z,25.71
2022-08-14T06:03:08.387Z,25.70
2022-08-14T06:05:39.882Z,25.70
2022-08-14T06:08:31.161Z,25.71
2022-08-14T06:11:06.824Z,25.72
2022-08-14T06:13:44.566Z,25.73
2022-08-14T06:16:17.532Z,25.74
2022-08-14T06:18:52.592Z,25.74
2022-08-14T06:21:22.803Z,25.74
2022-08-14T06:23:51.658Z,25.75
2022-08-14T06:26:22.474Z,25.75
2022-08-14T06:28:52.016Z,25.76
2022-08-14T06:31:21.531Z,25.75
2022-08-14T06:35:04.823Z,25.75
2022-08-14T06:36:41.693Z,25.75
2022-08-14T06:39:10.815Z,25.76
2022-08-14T06:41:58.331Z,25.77
2022-08-14T06:44:32.929Z,25.76
2022-08-14T06:47:03.279Z,25.76
2022-08-14T06:49:43.289Z,25.77
2022-08-14T06:52:17.120Z,25.77
2022-08-14T06:54:46.078Z,25.77
2022-08-14T06:57:14.782Z,25.77
2022-08-14T06:59:43.405Z,25.78
2022-08-14T07:02:29.456Z,25.79
2022-08-14T07:05:22.811Z,25.80
2022-08-14T07:07:52.497Z,25.79
2022-08-14T07:10:24.795Z,25.78
2022-08-14T07:13:03.546Z,25.82
2022-08-14T07:15:34.342Z,25.83
2022-08-14T07:18:09.354Z,25.83
2022-08-14T07:20:42.431Z,25.84
2022-08-14T07:23:20.462Z,25.85
2022-08-14T07:25:51.516Z,25.86
2022-08-14T07:28:23.562Z,25.94
2022-08-14T07:30:52.458Z,25.83
2022-08-14T07:33:24.906Z,25.77
2022-08-14T07:36:01.515Z,25.92
2022-08-14T07:38:37.526Z,25.92
2022-08-14T07:41:14.845Z,25.81
2022-08-14T07:43:47.632Z,25.85
2022-08-14T07:46:28.295Z,25.91
2022-08-14T07:48:58.138Z,25.95
2022-08-14T07:51:28.173Z,26.06
2022-08-14T07:54:06.894Z,25.76
2022-08-14T07:56:48.193Z,25.76
2022-08-14T07:59:31.370Z,25.76
2022-08-14T08:02:18.694Z,25.77
2022-08-14T08:04:53.090Z,25.78
2022-08-14T08:07:30.147Z,25.83
2022-08-14T08:10:01.135Z,25.64
2022-08-14T08:12:32.519Z,24.75
2022-08-14T08:15:07.390Z,24.84
2022-08-14T08:17:42.512Z,25.56
2022-08-14T08:20:26.282Z,25.89
2022-08-14T08:23:06.085Z,25.84
2022-08-14T08:25:40.015Z,25.78
2022-08-14T08:28:22.417Z,25.73
2022-08-14T08:30:56.281Z,25.63
2022-08-14T08:33:32.208Z,25.63
2022-08-14T08:36:08.138Z,25.60
2022-08-14T08:39:16.331Z,25.68
2022-08-14T08:41:42.233Z,25.69
2022-08-14T08:44:31.322Z,25.65
2022-08-14T08:47:05.578Z,25.46
2022-08-14T08:49:43.081Z,25.45
2022-08-14T08:52:25.488Z,25.61
2022-08-14T08:55:04.999Z,25.43
2022-08-14T08:57:37.564Z,25.29
2022-08-14T09:00:25.619Z,25.35
2022-08-14T09:02:59.378Z,25.16
2022-08-14T09:05:29.022Z,25.27
2022-08-14T09:08:30.720Z,25.33
2022-08-14T09:11:19.718Z,25.35
2022-08-14T09:13:51.926Z,25.50
2022-08-14T09:16:23.538Z,25.64
2022-08-14T09:18:53.882Z,25.57
2022-08-14T09:21:24.203Z,25.43
2022-08-14T09:24:29.439Z,25.41
2022-08-14T09:26:48.866Z,25.57
2022-08-14T09:29:18.174Z,25.67
2022-08-14T09:31:57.300Z,25.72
2022-08-14T09:34:58.284Z,25.73
2022-08-14T09:37:38.658Z,25.75
2022-08-14T09:40:20.716Z,25.78
2022-08-14T09:43:22.334Z,25.77
2022-08-14T09:45:53.851Z,25.60
2022-08-14T09:48:30.009Z,25.47
2022-08-14T09:54:12.620Z,25.83
2022-08-14T09:56:30.969Z,25.75
2022-08-14T09:59:12.953Z,25.77
2022-08-14T10:01:52.957Z,25.80
2022-08-14T10:04:33.781Z,25.80
2022-08-14T10:07:06.211Z,25.89
2022-08-14T10:09:59.837Z,26.08
2022-08-14T10:12:46.395Z,26.07
2022-08-14T10:15:21.989Z,25.97
2022-08-14T10:18:03.671Z,26.01
2022-08-14T10:20:39.829Z,26.00
2022-08-14T10:23:16.144Z,25.96
2022-08-14T10:25:47.483Z,25.85
2022-08-14T10:28:39.379Z,25.76
2022-08-14T10:31:25.674Z,25.81
2022-08-14T10:34:04.442Z,25.82
2022-08-14T10:36:44.901Z,25.88
2022-08-14T10:39:18.973Z,25.90
2022-08-14T10:41:49.349Z,25.88
2022-08-14T10:44:25.050Z,25.86
2022-08-14T10:47:40.377Z,25.87
2022-08-14T10:49:59.767Z,25.83
2022-08-14T10:52:31.802Z,25.83
2022-08-14T10:55:10.003Z,25.89
2022-08-14T10:57:51.572Z,25.96
2022-08-14T11:00:30.213Z,25.97
2022-08-14T11:03:09.622Z,26.05
2022-08-14T11:05:43.365Z,25.94
2022-08-14T11:08:12.822Z,25.88
2022-08-14T11:10:45.056Z,25.88
2022-08-14T11:13:18.735Z,25.87
2022-08-14T11:15:49.301Z,25.87
2022-08-14T11:18:20.606Z,25.92
2022-08-14T11:21:00.425Z,25.88
2022-08-14T11:23:38.282Z,25.90
2022-08-14T11:26:10.377Z,25.92
2022-08-14T11:28:47.277Z,25.89
2022-08-14T11:31:19.887Z,25.88
2022-08-14T11:33:58.241Z,25.92
2022-08-14T11:37:02.048Z,25.99
2022-08-14T11:39:23.184Z,26.00
2022-08-14T11:42:07.691Z,26.02
2022-08-14T11:44:56.752Z,26.03
2022-08-14T11:47:34.875Z,25.99
2022-08-14T11:50:33.794Z,26.14
2022-08-14T11:53:07.707Z,26.09
2022-08-14T11:55:38.869Z,26.05
2022-08-14T11:58:10.602Z,25.94
2022-08-14T12:00:49.007Z,25.87
2022-08-14T12:03:22.722Z,25.99
2022-08-14T12:06:28.042Z,26.07
2022-08-14T12:09:00.243Z,25.99
2022-08-14T12:11:43.811Z,25.94
2022-08-14T12:14:30.510Z,25.87
2022-08-14T12:17:12.695Z,25.87
2022-08-14T12:19:50.737Z,25.94
2022-08-14T12:22:35.406Z,26.07
2022-08-14T12:25:10.053Z,25.98
2022-08-14T12:27:51.960Z,26.13
2022-08-14T12:30:37.354Z,26.10
2022-08-14T12:33:08.920Z,25.90
2022-08-14T12:35:39.698Z,25.93
2022-08-14T12:38:10.504Z,25.88
2022-08-14T12:40:49.640Z,25.91
2022-08-14T12:43:19.755Z,25.77
2022-08-14T12:45:51.247Z,25.81
2022-08-14T12:48:31.492Z,25.79
2022-08-14T12:51:01.003Z,25.86
2022-08-14T12:53:40.033Z,25.92
2022-08-14T12:56:22.694Z,25.92
2022-08-14T12:59:01.123Z,25.90
2022-08-14T13:02:00.396Z,25.92
2022-08-14T13:04:22.978Z,25.96
2022-08-14T13:06:53.010Z,25.93
2022-08-14T13:09:28.036Z,25.93
2022-08-14T13:12:33.450Z,25.92
2022-08-14T13:14:55.292Z,25.94
2022-08-14T13:17:26.965Z,25.94
2022-08-14T13:19:58.350Z,25.91
2022-08-14T13:22:32.000Z,25.94
2022-08-14T13:25:05.460Z,25.95
2022-08-14T13:27:39.471Z,25.96
2022-08-14T13:30:14.583Z,25.98
2022-08-14T13:32:52.977Z,25.99
2022-08-14T13:35:22.883Z,25.98
2022-08-14T13:37:52.439Z,25.98
2022-08-14T13:40:26.083Z,25.98
2022-08-14T13:42:57.237Z,26.00
2022-08-14T13:45:56.410Z,26.01
2022-08-14T13:48:32.760Z,26.06
2022-08-14T13:51:04.792Z,25.98
2022-08-14T13:53:35.181Z,26.04
2022-08-14T13:56:14.681Z,26.09
2022-08-14T13:58:54.876Z,25.99
2022-08-14T14:01:42.845Z,25.96
2022-08-14T14:04:18.829Z,25.94
2022-08-14T14:06:50.938Z,25.93
2022-08-14T14:09:27.373Z,25.92
2022-08-14T14:12:38.248Z,25.93
2022-08-14T14:14:57.661Z,25.92
2022-08-14T14:17:33.333Z,25.91
2022-08-14T14:20:03.016Z,25.92
2022-08-14T14:23:01.880Z,25.92
2022-08-14T14:25:22.581Z,25.92
2022-08-14T14:27:53.498Z,25.93
2022-08-14T14:30:52.093Z,25.92
2022-08-14T14:33:44.117Z,25.93
2022-08-14T14:36:01.873Z,25.93
2022-08-14T14:38:34.507Z,25.98
2022-08-14T14:41:03.730Z,25.97
2022-08-14T14:43:39.064Z,25.96
2022-08-14T14:46:09.116Z,25.93
2022-08-14T14:48:46.621Z,25.96
2022-08-14T14:51:22.470Z,25.94
2022-08-14T14:53:52.514Z,25.92
2022-08-14T14:56:50.194Z,25.92
2022-08-14T14:59:13.085Z,25.91
2022-08-14T15:01:41.735Z,25.92
2022-08-14T15:04:20.059Z,25.97
2022-08-14T15:06:49.167Z,26.03
2022-08-14T15:09:18.331Z,26.00
2022-08-14T15:11:49.296Z,25.99
2022-08-14T15:14:55.988Z,25.97
2022-08-14T15:17:09.340Z,25.97
2022-08-14T15:19:39.761Z,25.99
2022-08-14T15:22:10.635Z,26.00
2022-08-14T15:24:39.927Z,26.00
2022-08-14T15:27:09.460Z,26.02
2022-08-14T15:29:43.034Z,26.05
2022-08-14T15:32:11.995Z,26.05
2022-08-14T15:34:45.886Z,26.07
2022-08-14T15:37:22.864Z,26.07
2022-08-14T15:39:52.579Z,26.10
2022-08-14T15:42:23.185Z,26.11
2022-08-14T15:44:58.283Z,26.13
2022-08-14T15:47:30.868Z,26.13
2022-08-14T15:50:00.567Z,26.11
2022-08-14T15:52:32.802Z,26.16
2022-08-14T15:55:08.496Z,26.13
2022-08-14T15:57:37.345Z,26.13
2022-08-14T16:00:43.272Z,26.10
2022-08-14T16:03:16.510Z,26.10
2022-08-14T16:05:46.084Z,26.10
2022-08-14T16:08:26.880Z,26.15
2022-08-14T16:10:59.141Z,26.09
2022-08-14T16:13:41.535Z,26.12
2022-08-14T16:16:48.065Z,26.11
2022-08-14T16:19:10.687Z,26.09
2022-08-14T16:22:01.956Z,26.18
2022-08-14T16:24:34.797Z,26.15
2022-08-14T16:27:05.450Z,26.11
2022-08-14T16:29:39.010Z,26.09
2022-08-14T16:32:36.005Z,26.15
2022-08-14T16:34:59.917Z,26.16
2022-08-14T16:37:30.949Z,26.14
2022-08-14T16:40:03.187Z,26.21
2022-08-14T16:43:03.433Z,26.13
2022-08-14T16:45:24.402Z,26.10
2022-08-14T16:47:54.608Z,26.18
2022-08-14T16:50:40.771Z,26.20
2022-08-14T16:53:17.704Z,26.14
2022-08-14T16:55:53.251Z,26.09
2022-08-14T16:58:27.764Z,26.10
2022-08-14T17:01:22.438Z,26.16
2022-08-14T17:03:59.303Z,26.11
2022-08-14T17:06:39.744Z,26.09
2022-08-14T17:09:35.692Z,26.07
2022-08-14T17:12:08.627Z,26.16
2022-08-14T17:15:03.485Z,26.16
2022-08-14T17:17:56.395Z,26.17
2022-08-14T17:20:53.266Z,26.18
2022-08-14T17:23:18.197Z,26.20
2022-08-14T17:25:49.451Z,26.17
2022-08-14T17:28:52.495Z,26.23
2022-08-14T17:31:12.158Z,26.14
2022-08-14T17:33:44.507Z,26.18
2022-08-14T17:36:24.168Z,26.16
2022-08-14T17:39:06.753Z,26.11
2022-08-14T17:41:43.828Z,26.16
2022-08-14T17:44:21.325Z,26.13
2022-08-14T17:46:55.357Z,26.11
2022-08-14T17:49:27.128Z,26.15
2022-08-14T17:52:07.830Z,26.12
2022-08-14T17:54:53.080Z,26.19
2022-08-14T17:57:35.313Z,26.15
2022-08-14T18:00:12.361Z,26.21
2022-08-14T18:02:51.294Z,26.22
2022-08-14T18:05:22.885Z,26.20
2022-08-14T18:08:31.472Z,26.21
2022-08-14T18:10:55.398Z,26.22
2022-08-14T18:13:50.255Z,26.20
2022-08-14T18:16:20.218Z,26.17
2022-08-14T18:18:53.931Z,26.25
2022-08-14T18:21:56.295Z,26.20
2022-08-14T18:24:28.357Z,26.23
2022-08-14T18:27:09.314Z,26.15
2022-08-14T18:29:54.686Z,26.20
2022-08-14T18:33:17.535Z,26.25
2022-08-14T18:36:46.325Z,26.32
2022-08-14T18:39:00.379Z,26.34
2022-08-14T18:41:36.836Z,26.26
2022-08-14T18:44:10.593Z,26.25
2022-08-14T18:47:20.953Z,26.31
2022-08-14T18:50:26.191Z,26.20
2022-08-14T18:52:55.757Z,26.26
2022-08-14T18:55:53.098Z,26.23
2022-08-14T18:58:31.183Z,26.16
2022-08-14T19:01:06.178Z,26.17
2022-08-14T19:04:01.610Z,26.14
2022-08-14T19:06:56.562Z,26.14
2022-08-14T19:09:58.297Z,26.10
2022-08-14T19:13:02.663Z,26.15
2022-08-14T19:15:35.551Z,26.18
2022-08-14T19:18:27.847Z,26.24
2022-08-14T19:20:59.004Z,26.26
2022-08-14T19:23:40.646Z,26.33
2022-08-14T19:26:36.415Z,26.24
2022-08-14T19:29:36.283Z,26.23
2022-08-14T19:32:40.462Z,26.33
2022-08-14T19:35:55.502Z,26.32
2022-08-14T19:38:54.805Z,26.19
2022-08-14T19:41:29.944Z,26.19
2022-08-14T19:44:10.532Z,26.24
2022-08-14T19:47:00.517Z,26.26
2022-08-14T19:50:30.488Z,26.25
2022-08-14T19:52:24.890Z,26.15
2022-08-14T19:54:53.644Z,26.23
2022-08-14T19:57:23.859Z,26.27
2022-08-14T20:00:04.662Z,26.23
2022-08-14T20:02:37.719Z,26.21
2022-08-14T20:05:10.486Z,26.21
2022-08-14T20:08:40.337Z,26.26
2022-08-14T20:11:05.559Z,26.16
2022-08-14T20:13:32.188Z,26.25
2022-08-14T20:16:12.055Z,26.24
2022-08-14T20:18:51.983Z,26.19
2022-08-14T20:21:24.898Z,26.23
2022-08-14T20:24:30.835Z,26.25
2022-08-14T20:27:34.065Z,26.19
2022-08-14T20:30:35.316Z,26.16
2022-08-14T20:33:07.923Z,26.09
2022-08-14T20:35:43.039Z,26.10
2022-08-14T20:38:30.570Z,26.03
2022-08-14T20:41:05.778Z,26.04
2022-08-14T20:43:54.540Z,26.07
2022-08-14T20:46:30.123Z,26.00
2022-08-14T20:49:01.413Z,26.06
2022-08-14T20:51:47.388Z,26.00
2022-08-14T20:54:34.324Z,26.01
2022-08-14T20:57:08.778Z,26.02
2022-08-14T20:59:43.501Z,25.93
2022-08-14T21:02:30.451Z,25.94
2022-08-14T21:05:16.178Z,25.93
2022-08-14T21:07:51.262Z,25.91
2022-08-14T21:10:33.459Z,25.91
2022-08-14T21:14:08.894Z,25.92
2022-08-14T21:15:57.502Z,25.91
2022-08-14T21:18:29.777Z,25.90
2022-08-14T21:20:59.154Z,25.92
2022-08-14T21:23:32.458Z,25.94
2022-08-14T21:26:03.536Z,25.95
2022-08-14T21:28:35.326Z,25.91
2022-08-14T21:31:05.560Z,25.84
2022-08-14T21:33:35.847Z,25.91
2022-08-14T21:36:07.918Z,25.90
2022-08-14T21:38:37.984Z,26.05
2022-08-14T21:41:42.405Z,25.97
2022-08-14T21:44:18.316Z,26.04
2022-08-14T21:46:51.158Z,26.08
2022-08-14T21:49:33.764Z,26.00
2022-08-14T21:52:49.546Z,26.07
2022-08-14T21:54:53.266Z,26.02
2022-08-14T21:57:56.776Z,25.96
2022-08-14T22:00:35.009Z,25.91
2022-08-14T22:03:05.755Z,26.07
2022-08-14T22:05:35.677Z,25.95
2022-08-14T22:08:07.545Z,25.92
2022-08-14T22:10:42.439Z,25.90
2022-08-14T22:13:13.361Z,25.88
2022-08-14T22:15:49.999Z,25.84
2022-08-14T22:18:21.175Z,25.82
2022-08-14T22:20:53.775Z,25.84
2022-08-14T22:23:23.170Z,25.86
2022-08-14T22:25:52.371Z,25.98
2022-08-14T22:28:23.089Z,25.92
2022-08-14T22:30:55.096Z,25.86
2022-08-14T22:33:31.298Z,25.93
2022-08-14T22:36:02.109Z,26.06
2022-08-14T22:38:36.384Z,25.97
2022-08-14T22:41:27.861Z,25.90
2022-08-14T22:43:59.259Z,25.80
2022-08-14T22:46:27.854Z,25.77
2022-08-14T22:48:57.562Z,25.80
2022-08-14T22:51:27.861Z,25.79
2022-08-14T22:53:58.298Z,25.78
2022-08-14T22:56:29.440Z,25.77
2022-08-14T22:59:00.234Z,25.77
2022-08-14T23:01:55.230Z,25.77
2022-08-14T23:04:34.407Z,25.77
2022-08-14T23:07:22.174Z,25.79
2022-08-14T23:09:56.540Z,25.79
2022-08-14T23:12:29.619Z,25.78
2022-08-14T23:15:00.342Z,25.76
2022-08-14T23:17:39.540Z,25.76
2022-08-14T23:20:19.254Z,25.76
2022-08-14T23:22:53.325Z,25.75
2022-08-14T23:25:56.946Z,25.75
2022-08-14T23:28:33.460Z,25.79
2022-08-14T23:31:05.674Z,25.79
2022-08-14T23:33:34.999Z,25.78
2022-08-14T23:36:04.710Z,25.82
2022-08-14T23:38:54.701Z,25.80
2022-08-14T23:41:25.048Z,25.89
2022-08-14T23:43:55.215Z,25.80
2022-08-14T23:46:34.813Z,25.77
2022-08-14T23:49:04.953Z,25.80
2022-08-14T23:51:36.591Z,25.82
2022-08-14T23:54:49.022Z,25.76
2022-08-14T23:56:59.886Z,25.94
2022-08-14T23:59:31.684Z,25.76
